Dorchester, New Hampshire
Current Conditions -  °F | °C
As of 11:15 PM on Tuesday 27 Jan 2015 (Local Time) from K1P1 Reporting Station
Light Snow Light Snow  
Wind Chill: -5°   Ceiling: 1200
Heat Index: 11°   Visibility: 2.5mi
Dew Point:   Wind: 14mph
Humidity: 85%   Direction: 280°W
Pressure: 29.71"   Gusts: 20mph
Location:  43.7922°N, 71.8971°W
Report Text: K1P1 280415Z AUTO 28012G17KT 2 1/2SM -SN BKN012 BKN021 OVC027 M12/M14 A2971 RMK AO2 T11191140
Loading
Personal Weather Stations






























Interactive Weather Map New forecast layout! Learn more

10-Day Weather Forecast

Advertisements
Track Severe Weather on mobile